createdAt,value
2019-03-17T00:00:59.133Z,94899.65
2019-03-17T00:03:26.572Z,94897.27
2019-03-17T00:05:54.007Z,94894.59
2019-03-17T00:08:21.315Z,94904.73
2019-03-17T00:10:48.582Z,94900.79
2019-03-17T00:13:17.820Z,94897.44
2019-03-17T00:15:45.156Z,94890.55
2019-03-17T00:18:12.450Z,94886.91
2019-03-17T00:20:39.727Z,94885.11
2019-03-17T00:23:07.077Z,94894.11
2019-03-17T00:25:34.375Z,94898.27
2019-03-17T00:28:01.736Z,94898.78
2019-03-17T00:30:29.014Z,94896.27
2019-03-17T00:32:56.336Z,94890.50
2019-03-17T00:35:23.639Z,94894.86
2019-03-17T00:37:50.976Z,94897.06
2019-03-17T00:40:18.316Z,94896.31
2019-03-17T00:42:45.611Z,94888.02
2019-03-17T00:45:12.977Z,94897.30
2019-03-17T00:47:40.320Z,94888.75
2019-03-17T00:50:07.995Z,94888.20
2019-03-17T00:52:35.260Z,94884.75
2019-03-17T00:55:03.402Z,94878.25
2019-03-17T00:57:30.728Z,94883.14
2019-03-17T00:59:58.016Z,94881.59
2019-03-17T01:02:25.336Z,94878.12
2019-03-17T01:04:56.448Z,94886.77
2019-03-17T01:07:21.939Z,94878.93
2019-03-17T01:09:49.256Z,94868.66
2019-03-17T01:12:16.554Z,94866.17
2019-03-17T01:14:43.912Z,94869.70
2019-03-17T01:17:11.230Z,94865.52
2019-03-17T01:19:38.548Z,94864.13
2019-03-17T01:22:05.876Z,94864.83
2019-03-17T01:24:33.231Z,94851.29
2019-03-17T01:27:00.537Z,94852.05
2019-03-17T01:29:27.856Z,94855.95
2019-03-17T01:31:55.216Z,94850.75
2019-03-17T01:34:22.570Z,94857.52
2019-03-17T01:36:49.936Z,94848.50
2019-03-17T01:39:17.247Z,94842.48
2019-03-17T01:41:44.595Z,94848.05
2019-03-17T01:44:11.856Z,94842.08
2019-03-17T01:46:39.152Z,94835.69
2019-03-17T01:49:06.533Z,94839.19
2019-03-17T01:51:33.936Z,94837.03
2019-03-17T01:54:01.425Z,94829.52
2019-03-17T01:56:28.835Z,94832.48
2019-03-17T01:58:56.146Z,94831.56
2019-03-17T02:01:23.427Z,94825.77
2019-03-17T02:03:50.777Z,94829.69
2019-03-17T02:06:18.095Z,94817.77
2019-03-17T02:08:45.464Z,94818.92
2019-03-17T02:11:12.788Z,94819.48
2019-03-17T02:13:40.112Z,94820.23
2019-03-17T02:16:07.477Z,94821.26
2019-03-17T02:18:34.750Z,94820.13
2019-03-17T02:21:02.037Z,94817.84
2019-03-17T02:23:29.340Z,94812.56
2019-03-17T02:25:56.680Z,94814.44
2019-03-17T02:28:24.011Z,94818.47
2019-03-17T02:30:51.298Z,94814.67
2019-03-17T02:33:18.593Z,94824.62
2019-03-17T02:35:45.891Z,94822.09
2019-03-17T02:38:13.200Z,94815.70
2019-03-17T02:40:40.496Z,94810.87
2019-03-17T02:43:07.820Z,94816.54
2019-03-17T02:45:35.126Z,94809.52
2019-03-17T02:48:02.438Z,94804.77
2019-03-17T02:50:29.715Z,94813.12
2019-03-17T02:52:57.077Z,94814.14
2019-03-17T02:55:24.362Z,94808.55
2019-03-17T02:57:51.729Z,94808.85
2019-03-17T03:00:19.217Z,94805.74
2019-03-17T03:02:46.519Z,94800.14
2019-03-17T03:05:13.840Z,94801.27
2019-03-17T03:07:41.235Z,94809.32
2019-03-17T03:10:08.638Z,94809.95
2019-03-17T03:12:35.915Z,94804.97
2019-03-17T03:15:03.457Z,94808.86
2019-03-17T03:17:30.800Z,94806.36
2019-03-17T03:19:58.698Z,94800.81
2019-03-17T03:22:25.997Z,94796.08
2019-03-17T03:24:53.295Z,94796.44
2019-03-17T03:27:20.578Z,94793.78
2019-03-17T03:29:47.904Z,94795.52
2019-03-17T03:32:15.258Z,94797.13
2019-03-17T03:34:42.537Z,94789.84
2019-03-17T03:37:09.857Z,94779.05
2019-03-17T03:39:37.187Z,94781.53
2019-03-17T03:42:04.518Z,94787.73
2019-03-17T03:44:31.873Z,94778.56
2019-03-17T03:46:59.161Z,94786.64
2019-03-17T03:49:26.488Z,94782.55
2019-03-17T03:51:53.818Z,94784.41
2019-03-17T03:54:21.147Z,94782.48
2019-03-17T03:56:48.423Z,94775.27
2019-03-17T03:59:15.740Z,94778.30
2019-03-17T04:01:43.052Z,94780.36
2019-03-17T04:04:10.328Z,94778.24
2019-03-17T04:06:37.612Z,94777.64
2019-03-17T04:09:06.857Z,94776.71
2019-03-17T04:11:34.160Z,94782.26
2019-03-17T04:14:01.540Z,94774.14
2019-03-17T04:16:28.861Z,94777.39
2019-03-17T04:18:56.184Z,94777.45
2019-03-17T04:21:23.762Z,94771.47
2019-03-17T04:23:51.062Z,94773.67
2019-03-17T04:26:18.347Z,94770.98
2019-03-17T04:28:45.657Z,94758.58
2019-03-17T04:31:14.629Z,94761.16
2019-03-17T04:33:42.200Z,94772.92
2019-03-17T04:36:09.520Z,94772.28
2019-03-17T04:38:36.828Z,94757.44
2019-03-17T04:41:04.118Z,94769.29
2019-03-17T04:43:31.422Z,94756.98
2019-03-17T04:45:58.676Z,94754.47
2019-03-17T04:48:25.988Z,94749.23
2019-03-17T04:50:53.305Z,94750.45
2019-03-17T04:53:20.658Z,94744.88
2019-03-17T04:55:47.937Z,94736.65
2019-03-17T04:58:15.262Z,94740.05
2019-03-17T05:00:42.617Z,94739.61
2019-03-17T05:03:09.891Z,94736.70
2019-03-17T05:05:37.204Z,94749.67
2019-03-17T05:08:04.496Z,94745.01
2019-03-17T05:10:31.854Z,94738.66
2019-03-17T05:12:59.117Z,94740.45
2019-03-17T05:15:26.460Z,94743.79
2019-03-17T05:17:53.760Z,94748.82
2019-03-17T05:20:21.142Z,94736.22
2019-03-17T05:22:48.492Z,94735.41
2019-03-17T05:25:15.847Z,94738.58
2019-03-17T05:27:43.156Z,94729.24
2019-03-17T05:30:11.017Z,94733.17
2019-03-17T05:32:40.224Z,94732.45
2019-03-17T05:35:07.637Z,94725.23
2019-03-17T05:37:35.059Z,94727.11
2019-03-17T05:40:02.403Z,94724.20
2019-03-17T05:42:29.697Z,94725.52
2019-03-17T05:44:56.975Z,94733.83
2019-03-17T05:47:24.319Z,94728.39
2019-03-17T05:49:51.579Z,94731.42
2019-03-17T05:52:18.875Z,94738.17
2019-03-17T05:54:46.538Z,94723.55
2019-03-17T05:57:13.852Z,94732.75
2019-03-17T05:59:41.233Z,94732.45
2019-03-17T06:02:08.519Z,94731.52
2019-03-17T06:04:35.822Z,94731.08
2019-03-17T06:07:03.162Z,94727.36
2019-03-17T06:09:30.524Z,94723.14
2019-03-17T06:11:57.855Z,94724.41
2019-03-17T06:14:25.149Z,94728.33
2019-03-17T06:16:52.544Z,94727.66
2019-03-17T06:19:19.849Z,94730.43
2019-03-17T06:21:47.156Z,94728.67
2019-03-17T06:24:14.483Z,94724.14
2019-03-17T06:26:41.769Z,94729.80
2019-03-17T06:29:09.108Z,94718.50
2019-03-17T06:31:36.446Z,94730.89
2019-03-17T06:34:03.878Z,94730.23
2019-03-17T06:36:31.190Z,94735.71
2019-03-17T06:38:58.524Z,94734.89
2019-03-17T06:41:25.880Z,94735.08
2019-03-17T06:43:53.217Z,94726.64
2019-03-17T06:46:20.556Z,94721.34
2019-03-17T06:48:48.137Z,94725.48
2019-03-17T06:51:15.445Z,94721.02
2019-03-17T06:53:55.426Z,94726.58
2019-03-17T06:56:11.973Z,94725.59
2019-03-17T06:58:39.278Z,94718.18
2019-03-17T07:01:06.574Z,94719.23
2019-03-17T07:03:33.922Z,94712.37
2019-03-17T07:06:01.216Z,94707.81
2019-03-17T07:08:28.589Z,94709.92
2019-03-17T07:10:55.916Z,94709.09
2019-03-17T07:13:23.237Z,94713.56
2019-03-17T07:15:50.532Z,94709.77
2019-03-17T07:18:17.814Z,94710.42
2019-03-17T07:20:45.084Z,94707.33
2019-03-17T07:23:12.423Z,94682.80
2019-03-17T07:25:39.715Z,94675.91
2019-03-17T07:28:07.056Z,94685.75
2019-03-17T07:30:34.326Z,94670.12
2019-03-17T07:33:01.664Z,94671.05
2019-03-17T07:35:28.958Z,94665.87
2019-03-17T07:37:57.302Z,94671.47
2019-03-17T07:40:24.802Z,94657.83
2019-03-17T07:42:52.142Z,94654.30
2019-03-17T07:45:19.409Z,94648.69
2019-03-17T07:47:46.703Z,94643.16
2019-03-17T07:50:13.990Z,94631.14
2019-03-17T07:52:41.284Z,94628.16
2019-03-17T07:55:08.755Z,94638.94
2019-03-17T07:57:36.020Z,94626.28
2019-03-17T08:00:04.098Z,94624.44
2019-03-17T08:02:31.357Z,94619.22
2019-03-17T08:04:58.655Z,94611.47
2019-03-17T08:07:25.968Z,94607.61
2019-03-17T08:09:53.252Z,94613.74
2019-03-17T08:12:20.573Z,94604.73
2019-03-17T08:14:47.906Z,94600.08
2019-03-17T08:17:16.264Z,94602.17
2019-03-17T08:19:45.700Z,94598.48
2019-03-17T08:22:13.059Z,94580.92
2019-03-17T08:24:40.377Z,94584.06
2019-03-17T08:27:07.664Z,94583.66
2019-03-17T08:29:35.043Z,94573.52
2019-03-17T08:32:02.389Z,94569.21
2019-03-17T08:34:29.688Z,94553.69
2019-03-17T08:36:57.033Z,94555.88
2019-03-17T08:39:24.349Z,94556.59
2019-03-17T08:41:51.634Z,94548.41
2019-03-17T08:44:18.980Z,94541.53
2019-03-17T08:46:46.290Z,94535.30
2019-03-17T08:49:13.612Z,94524.92
2019-03-17T08:51:40.879Z,94525.20
2019-03-17T08:54:08.254Z,94521.02
2019-03-17T08:56:35.508Z,94513.06
2019-03-17T08:59:02.897Z,94513.72
2019-03-17T09:01:30.259Z,94514.92
2019-03-17T09:03:57.548Z,94501.37
2019-03-17T09:06:24.888Z,94499.36
2019-03-17T09:08:52.198Z,94494.17
2019-03-17T09:11:19.511Z,94478.96
2019-03-17T09:13:46.915Z,94484.78
2019-03-17T09:16:14.445Z,94482.95
2019-03-17T09:18:41.799Z,94476.23
2019-03-17T09:21:09.125Z,94472.27
2019-03-17T09:23:36.480Z,94463.87
2019-03-17T09:26:03.784Z,94459.39
2019-03-17T09:28:31.128Z,94470.73
2019-03-17T09:30:58.483Z,94468.39
2019-03-17T09:33:25.769Z,94463.02
2019-03-17T09:35:53.049Z,94453.62
2019-03-17T09:38:20.403Z,94442.53
2019-03-17T09:40:47.766Z,94443.36
2019-03-17T09:43:15.183Z,94442.49
2019-03-17T09:45:42.511Z,94442.88
2019-03-17T09:48:09.870Z,94435.78
2019-03-17T09:50:37.167Z,94430.95
2019-03-17T09:53:04.522Z,94424.78
2019-03-17T09:55:32.061Z,94424.88
2019-03-17T09:57:59.368Z,94416.91
2019-03-17T10:00:26.861Z,94415.03
2019-03-17T10:02:54.230Z,94406.63
2019-03-17T10:05:22.315Z,94385.88
2019-03-17T10:07:49.688Z,94387.05
2019-03-17T10:10:17.029Z,94382.65
2019-03-17T10:12:44.327Z,94378.73
2019-03-17T10:15:12.289Z,94370.88
2019-03-17T10:17:39.704Z,94372.81
2019-03-17T10:20:09.646Z,94365.30
2019-03-17T10:22:39.741Z,94363.28
2019-03-17T10:25:07.650Z,94355.53
2019-03-17T10:27:35.111Z,94352.27
2019-03-17T10:30:02.713Z,94347.39
2019-03-17T10:32:30.181Z,94336.22
2019-03-17T10:34:57.503Z,94332.56
2019-03-17T10:37:24.918Z,94328.13
2019-03-17T10:39:52.258Z,94324.09
2019-03-17T10:42:19.572Z,94318.07
2019-03-17T10:44:46.871Z,94322.07
2019-03-17T10:47:14.230Z,94317.03
2019-03-17T10:49:41.548Z,94305.14
2019-03-17T10:52:08.957Z,94298.42
2019-03-17T10:54:36.511Z,94290.33
2019-03-17T10:57:03.962Z,94288.73
2019-03-17T10:59:31.457Z,94278.03
2019-03-17T11:01:58.994Z,94276.37
2019-03-17T11:04:26.336Z,94275.41
2019-03-17T11:06:53.670Z,94275.23
2019-03-17T11:09:25.430Z,94269.63
2019-03-17T11:11:50.437Z,94266.52
2019-03-17T11:14:17.864Z,94255.16
2019-03-17T11:16:45.348Z,94253.70
2019-03-17T11:19:13.657Z,94252.30
2019-03-17T11:21:41.167Z,94252.52
2019-03-17T11:24:08.648Z,94248.53
2019-03-17T11:26:36.217Z,94236.16
2019-03-17T11:29:03.805Z,94233.79
2019-03-17T11:31:31.278Z,94233.05
2019-03-17T11:33:58.810Z,94226.45
2019-03-17T11:36:26.662Z,94216.12
2019-03-17T11:38:54.172Z,94218.32
2019-03-17T11:41:21.516Z,94209.27
2019-03-17T11:43:49.059Z,94205.31
2019-03-17T11:46:16.542Z,94194.04
2019-03-17T11:48:43.912Z,94195.31
2019-03-17T11:51:11.364Z,94184.92
2019-03-17T11:53:38.983Z,94186.62
2019-03-17T11:56:06.471Z,94181.70
2019-03-17T11:58:33.951Z,94178.30
2019-03-17T12:01:01.538Z,94168.52
2019-03-17T12:03:29.031Z,94159.44
2019-03-17T12:05:56.609Z,94154.06
2019-03-17T12:08:24.153Z,94146.95
2019-03-17T12:10:51.656Z,94145.10
2019-03-17T12:13:21.514Z,94145.70
2019-03-17T12:15:49.341Z,94128.19
2019-03-17T12:18:16.882Z,94138.13
2019-03-17T12:20:44.590Z,94127.95
2019-03-17T12:23:12.403Z,94118.11
2019-03-17T12:25:40.232Z,94121.14
2019-03-17T12:28:07.976Z,94116.94
2019-03-17T12:30:36.655Z,94100.64
2019-03-17T12:33:04.279Z,94100.29
2019-03-17T12:35:33.010Z,94100.59
2019-03-17T12:38:00.721Z,94090.74
2019-03-17T12:40:28.612Z,94096.61
2019-03-17T12:42:56.305Z,94086.47
2019-03-17T12:45:24.076Z,94082.12
2019-03-17T12:47:51.819Z,94075.61
2019-03-17T12:50:19.732Z,94073.87
2019-03-17T12:52:47.690Z,94074.48
2019-03-17T12:55:15.288Z,94082.90
2019-03-17T12:57:42.986Z,94072.55
2019-03-17T13:00:15.612Z,94063.33
2019-03-17T13:02:43.257Z,94060.80
2019-03-17T13:05:11.490Z,94051.41
2019-03-17T13:07:39.320Z,94050.08
2019-03-17T13:10:15.540Z,94055.13
2019-03-17T13:12:38.949Z,94059.29
2019-03-17T13:15:07.715Z,94048.63
2019-03-17T13:17:35.891Z,94044.66
2019-03-17T13:20:04.200Z,94044.28
2019-03-17T13:22:34.066Z,94038.86
2019-03-17T13:25:01.898Z,94031.41
2019-03-17T13:27:29.721Z,94026.61
2019-03-17T13:29:57.824Z,94020.17
2019-03-17T13:32:25.786Z,94020.95
2019-03-17T13:34:53.611Z,94021.83
2019-03-17T13:37:21.541Z,94022.10
2019-03-17T13:39:49.668Z,94024.38
2019-03-17T13:42:17.381Z,94008.66
2019-03-17T13:44:45.021Z,94007.11
2019-03-17T13:47:15.275Z,94009.95
2019-03-17T13:49:42.913Z,94016.50
2019-03-17T13:52:10.609Z,94021.86
2019-03-17T13:54:38.810Z,94015.02
2019-03-17T13:57:06.407Z,94016.53
2019-03-17T13:59:34.017Z,94012.06
2019-03-17T14:02:01.730Z,94016.56
2019-03-17T14:04:29.530Z,94002.99
2019-03-17T14:06:57.246Z,94006.45
2019-03-17T14:09:24.973Z,94000.20
2019-03-17T14:11:53.110Z,93995.20
2019-03-17T14:14:21.941Z,93998.70
2019-03-17T14:16:49.647Z,94006.23
2019-03-17T14:19:17.401Z,94003.06
2019-03-17T14:21:45.312Z,94008.59
2019-03-17T14:24:13.058Z,93998.92
2019-03-17T14:26:40.796Z,93998.66
2019-03-17T14:29:08.499Z,93998.08
2019-03-17T14:31:36.254Z,93999.22
2019-03-17T14:34:04.088Z,94006.34
2019-03-17T14:36:31.774Z,93992.26
2019-03-17T14:38:59.577Z,94000.77
2019-03-17T14:41:27.353Z,93991.08
2019-03-17T14:43:55.221Z,93989.00
2019-03-17T14:46:22.971Z,93994.50
2019-03-17T14:48:50.720Z,93985.23
2019-03-17T14:51:18.765Z,93997.53
2019-03-17T14:53:46.394Z,93988.52
2019-03-17T14:56:14.080Z,93992.59
2019-03-17T14:58:42.160Z,94002.60
2019-03-17T15:01:09.936Z,93989.95
2019-03-17T15:03:37.600Z,93996.19
2019-03-17T15:06:05.414Z,93992.24
2019-03-17T15:08:33.055Z,93992.64
2019-03-17T15:11:05.636Z,93986.73
2019-03-17T15:13:30.465Z,93996.91
2019-03-17T15:16:02.673Z,93992.76
2019-03-17T15:18:27.838Z,94006.08
2019-03-17T15:20:55.607Z,93992.42
2019-03-17T15:23:23.436Z,94001.49
2019-03-17T15:25:51.340Z,94004.80
2019-03-17T15:28:19.675Z,94011.72
2019-03-17T15:31:05.645Z,94018.72
2019-03-17T15:33:19.932Z,94005.55
2019-03-17T15:35:48.048Z,94015.97
2019-03-17T15:38:16.109Z,94006.32
2019-03-17T15:40:44.009Z,94013.49
2019-03-17T15:43:11.819Z,94019.72
2019-03-17T15:45:40.864Z,94018.52
2019-03-17T15:48:08.667Z,94012.67
2019-03-17T15:50:39.706Z,94015.97
2019-03-17T15:53:07.732Z,94024.02
2019-03-17T15:55:35.663Z,94033.53
2019-03-17T15:58:03.627Z,94046.14
2019-03-17T16:00:31.598Z,94050.75
2019-03-17T16:02:59.944Z,94051.38
2019-03-17T16:05:30.021Z,94065.97
2019-03-17T16:08:00.388Z,94059.88
2019-03-17T16:10:28.276Z,94070.20
2019-03-17T16:12:56.282Z,94060.48
2019-03-17T16:15:24.164Z,94067.20
2019-03-17T16:17:52.026Z,94072.33
2019-03-17T16:20:20.272Z,94066.92
2019-03-17T16:22:50.517Z,94076.33
2019-03-17T16:25:18.521Z,94081.13
2019-03-17T16:27:46.463Z,94084.56
2019-03-17T16:30:19.433Z,94089.01
2019-03-17T16:32:47.649Z,94087.96
2019-03-17T16:35:15.619Z,94099.95
2019-03-17T16:37:45.247Z,94105.55
2019-03-17T16:40:14.184Z,94117.13
2019-03-17T16:42:41.929Z,94110.55
2019-03-17T16:45:11.170Z,94105.11
2019-03-17T16:47:38.936Z,94111.53
2019-03-17T16:50:08.783Z,94117.38
2019-03-17T16:52:37.808Z,94123.06
2019-03-17T16:55:06.412Z,94120.74
2019-03-17T16:57:34.184Z,94127.59
2019-03-17T17:00:02.017Z,94138.64
2019-03-17T17:02:29.803Z,94137.50
2019-03-17T17:04:57.484Z,94136.54
2019-03-17T17:07:25.425Z,94140.84
2019-03-17T17:09:53.702Z,94151.06
2019-03-17T17:12:21.585Z,94154.71
2019-03-17T17:14:49.569Z,94162.83
2019-03-17T17:17:17.481Z,94163.02
2019-03-17T17:19:56.038Z,94181.18
2019-03-17T17:22:24.255Z,94175.81
2019-03-17T17:24:51.943Z,94177.67
2019-03-17T17:27:20.756Z,94177.42
2019-03-17T17:29:48.665Z,94202.92
2019-03-17T17:32:16.622Z,94200.87
2019-03-17T17:34:44.514Z,94198.13
2019-03-17T17:37:12.334Z,94203.47
2019-03-17T17:39:40.032Z,94201.58
2019-03-17T17:42:10.120Z,94201.77
2019-03-17T17:44:37.672Z,94211.45
2019-03-17T17:47:05.503Z,94215.05
2019-03-17T17:49:33.469Z,94224.00
2019-03-17T17:52:03.514Z,94224.34
2019-03-17T17:54:31.241Z,94224.46
2019-03-17T17:56:59.586Z,94221.17
2019-03-17T17:59:31.577Z,94242.72
2019-03-17T18:01:59.532Z,94244.30
2019-03-17T18:04:28.527Z,94239.33
2019-03-17T18:06:56.391Z,94248.30
2019-03-17T18:09:24.641Z,94255.22
2019-03-17T18:11:53.677Z,94253.37
2019-03-17T18:14:21.771Z,94270.87
2019-03-17T18:16:51.180Z,94266.91
2019-03-17T18:19:19.528Z,94274.17
2019-03-17T18:21:47.404Z,94274.91
2019-03-17T18:24:16.205Z,94274.41
2019-03-17T18:26:44.441Z,94299.13
2019-03-17T18:29:12.294Z,94311.63
2019-03-17T18:31:41.345Z,94304.57
2019-03-17T18:34:09.404Z,94307.72
2019-03-17T18:36:37.779Z,94315.95
2019-03-17T18:39:06.897Z,94340.02
2019-03-17T18:41:34.969Z,94328.29
2019-03-17T18:44:03.303Z,94346.89
2019-03-17T18:46:31.574Z,94358.89
2019-03-17T18:49:03.183Z,94347.17
2019-03-17T18:51:31.037Z,94368.90
2019-03-17T18:53:59.020Z,94374.13
2019-03-17T18:56:30.349Z,94375.09
2019-03-17T18:58:58.257Z,94405.06
2019-03-17T19:01:26.532Z,94394.08
2019-03-17T19:03:54.534Z,94426.36
2019-03-17T19:06:23.544Z,94426.91
2019-03-17T19:08:51.959Z,94439.32
2019-03-17T19:11:20.240Z,94461.30
2019-03-17T19:13:48.081Z,94474.43
2019-03-17T19:16:16.046Z,94485.23
2019-03-17T19:18:43.964Z,94510.22
2019-03-17T19:21:11.797Z,94522.61
2019-03-17T19:23:39.671Z,94534.28
2019-03-17T19:26:11.478Z,94553.34
2019-03-17T19:28:39.463Z,94626.65
2019-03-17T19:31:08.360Z,94609.45
2019-03-17T19:33:36.661Z,94648.11
2019-03-17T19:36:04.935Z,94708.56
2019-03-17T19:38:32.821Z,94711.19
2019-03-17T19:41:03.415Z,94705.11
2019-03-17T19:43:32.091Z,94731.11
2019-03-17T19:46:00.788Z,94752.45
2019-03-17T19:48:29.055Z,94750.90
2019-03-17T19:50:58.118Z,94744.38
2019-03-17T19:53:27.323Z,94756.67
2019-03-17T19:55:55.198Z,94775.34
2019-03-17T19:58:23.237Z,94796.51
2019-03-17T20:00:53.235Z,94812.80
2019-03-17T20:03:21.208Z,94774.05
2019-03-17T20:06:01.765Z,94809.67
2019-03-17T20:08:20.119Z,94813.80
2019-03-17T20:10:48.047Z,94799.03
2019-03-17T20:13:16.440Z,94816.45
2019-03-17T20:15:44.402Z,94834.09
2019-03-17T20:18:12.207Z,94828.44
2019-03-17T20:20:40.475Z,94862.98
2019-03-17T20:23:10.846Z,94863.54
2019-03-17T20:25:41.017Z,94895.02
2019-03-17T20:28:10.631Z,94914.79
2019-03-17T20:30:38.530Z,94894.07
2019-03-17T20:33:06.488Z,94913.06
2019-03-17T20:35:34.731Z,94894.23
2019-03-17T20:38:03.358Z,94913.88
2019-03-17T20:40:33.112Z,94908.83
2019-03-17T20:43:00.980Z,94900.89
2019-03-17T20:45:29.168Z,94914.41
2019-03-17T20:47:57.104Z,94918.16
2019-03-17T20:50:25.059Z,94923.31
2019-03-17T20:52:52.773Z,94937.63
2019-03-17T20:55:20.624Z,94948.78
2019-03-17T20:57:49.183Z,94951.09
2019-03-17T21:00:17.302Z,94948.52
2019-03-17T21:02:45.591Z,94980.19
2019-03-17T21:05:13.580Z,94982.88
2019-03-17T21:07:43.821Z,94967.05
2019-03-17T21:10:12.123Z,94975.33
2019-03-17T21:12:39.974Z,94973.96
2019-03-17T21:15:10.582Z,94974.66
2019-03-17T21:17:39.066Z,94986.73
2019-03-17T21:20:10.363Z,94989.33
2019-03-17T21:22:38.149Z,94989.98
2019-03-17T21:25:06.002Z,94992.94
2019-03-17T21:27:33.758Z,94993.34
2019-03-17T21:30:02.042Z,95005.22
2019-03-17T21:32:30.003Z,95020.55
2019-03-17T21:34:57.770Z,95014.88
2019-03-17T21:37:25.380Z,95017.05
2019-03-17T21:39:53.330Z,95023.31
2019-03-17T21:42:21.073Z,95019.05
2019-03-17T21:44:49.195Z,95043.42
2019-03-17T21:47:17.048Z,95062.19
2019-03-17T21:49:44.784Z,95074.08
2019-03-17T21:52:12.531Z,95082.72
2019-03-17T21:54:40.279Z,95080.61
2019-03-17T21:57:08.020Z,95074.75
2019-03-17T21:59:35.621Z,95084.06
2019-03-17T22:02:12.795Z,95096.62
2019-03-17T22:04:33.634Z,95093.92
2019-03-17T22:07:01.711Z,95096.80
2019-03-17T22:09:29.555Z,95110.34
2019-03-17T22:11:56.961Z,95113.37
2019-03-17T22:14:24.472Z,95118.17
2019-03-17T22:16:51.867Z,95132.92
2019-03-17T22:19:19.224Z,95131.27
2019-03-17T22:21:46.587Z,95141.14
2019-03-17T22:24:13.970Z,95142.73
2019-03-17T22:26:41.347Z,95154.03
2019-03-17T22:29:08.729Z,95155.19
2019-03-17T22:31:36.086Z,95156.41
2019-03-17T22:34:03.590Z,95168.48
2019-03-17T22:36:30.969Z,95162.61
2019-03-17T22:38:58.327Z,95169.28
2019-03-17T22:41:25.638Z,95173.89
2019-03-17T22:43:52.970Z,95170.67
2019-03-17T22:46:20.297Z,95164.31
2019-03-17T22:48:47.784Z,95164.38
2019-03-17T22:51:15.112Z,95162.78
2019-03-17T22:53:42.446Z,95178.91
2019-03-17T22:56:09.777Z,95183.63
2019-03-17T22:58:37.109Z,95180.72
2019-03-17T23:01:04.574Z,95194.41
2019-03-17T23:03:31.904Z,95198.45
2019-03-17T23:05:59.237Z,95194.58
2019-03-17T23:08:26.706Z,95203.28
2019-03-17T23:10:54.212Z,95200.00
2019-03-17T23:13:21.563Z,95203.34
2019-03-17T23:15:48.965Z,95204.61
2019-03-17T23:18:16.326Z,95202.74
2019-03-17T23:20:43.977Z,95205.09
2019-03-17T23:23:11.561Z,95211.14
2019-03-17T23:25:39.035Z,95207.01
2019-03-17T23:28:06.467Z,95219.84
2019-03-17T23:30:34.117Z,95206.66
2019-03-17T23:33:01.400Z,95212.58
2019-03-17T23:35:28.732Z,95217.77
2019-03-17T23:37:56.102Z,95218.20
2019-03-17T23:40:23.456Z,95220.39
2019-03-17T23:42:50.788Z,95223.50
2019-03-17T23:45:18.096Z,95205.19
2019-03-17T23:47:45.411Z,95209.97
2019-03-17T23:50:12.900Z,95205.34
2019-03-17T23:52:40.270Z,95207.33
2019-03-17T23:55:09.716Z,95212.67
2019-03-17T23:57:37.038Z,95207.98
